sensor_id;sensor_type;location;lat;lon;timestamp;pressure;altitude;pressure_sealevel;temperature;humidity
25238;BME280;13185;50.872;5.306;2023-04-30T00:00:28;101911.97;;;8.78;98.99
25238;BME280;13185;50.872;5.306;2023-04-30T00:02:53;101911.22;;;8.74;98.79
25238;BME280;13185;50.872;5.306;2023-04-30T00:05:19;101896.16;;;8.72;98.50
25238;BME280;13185;50.872;5.306;2023-04-30T00:07:45;101910.69;;;8.66;98.59
25238;BME280;13185;50.872;5.306;2023-04-30T00:10:10;101908.97;;;8.63;98.32
25238;BME280;13185;50.872;5.306;2023-04-30T00:12:37;101911.84;;;8.59;98.21
25238;BME280;13185;50.872;5.306;2023-04-30T00:15:02;101915.59;;;8.55;98.15
25238;BME280;13185;50.872;5.306;2023-04-30T00:17:28;101915.69;;;8.52;98.10
25238;BME280;13185;50.872;5.306;2023-04-30T00:19:54;101915.00;;;8.47;98.23
25238;BME280;13185;50.872;5.306;2023-04-30T00:22:20;101917.84;;;8.42;98.68
25238;BME280;13185;50.872;5.306;2023-04-30T00:24:45;101914.44;;;8.38;98.72
25238;BME280;13185;50.872;5.306;2023-04-30T00:27:11;101915.50;;;8.34;98.68
25238;BME280;13185;50.872;5.306;2023-04-30T00:29:36;101920.97;;;8.30;98.84
25238;BME280;13185;50.872;5.306;2023-04-30T00:32:02;101920.28;;;8.25;99.22
25238;BME280;13185;50.872;5.306;2023-04-30T00:34:28;101920.38;;;8.22;99.50
25238;BME280;13185;50.872;5.306;2023-04-30T00:36:54;101918.75;;;8.18;99.42
25238;BME280;13185;50.872;5.306;2023-04-30T00:39:20;101910.09;;;8.11;99.32
25238;BME280;13185;50.872;5.306;2023-04-30T00:41:46;101917.38;;;8.07;99.26
25238;BME280;13185;50.872;5.306;2023-04-30T00:44:11;101922.91;;;8.03;99.16
25238;BME280;13185;50.872;5.306;2023-04-30T00:46:37;101916.72;;;8.01;99.14
25238;BME280;13185;50.872;5.306;2023-04-30T00:49:02;101922.19;;;7.98;99.51
25238;BME280;13185;50.872;5.306;2023-04-30T00:51:32;101910.69;;;7.96;99.71
25238;BME280;13185;50.872;5.306;2023-04-30T00:54:00;101911.78;;;7.90;99.73
25238;BME280;13185;50.872;5.306;2023-04-30T00:56:28;101914.50;;;7.89;99.75
25238;BME280;13185;50.872;5.306;2023-04-30T00:58:55;101906.63;;;7.86;99.73
25238;BME280;13185;50.872;5.306;2023-04-30T01:01:26;101911.22;;;7.82;99.69
25238;BME280;13185;50.872;5.306;2023-04-30T01:03:53;101911.34;;;7.77;99.58
25238;BME280;13185;50.872;5.306;2023-04-30T01:06:19;101906.13;;;7.74;99.67
25238;BME280;13185;50.872;5.306;2023-04-30T01:08:46;101909.78;;;7.72;99.74
25238;BME280;13185;50.872;5.306;2023-04-30T01:18:57;101909.41;;;7.58;99.81
25238;BME280;13185;50.872;5.306;2023-04-30T01:21:26;101905.06;;;7.55;99.75
25238;BME280;13185;50.872;5.306;2023-04-30T01:29:55;101904.38;;;7.48;99.91
25238;BME280;13185;50.872;5.306;2023-04-30T01:32:22;101894.69;;;7.46;100.00
25238;BME280;13185;50.872;5.306;2023-04-30T01:34:48;101908.97;;;7.45;100.00
25238;BME280;13185;50.872;5.306;2023-04-30T01:48:30;101902.25;;;7.33;99.74
25238;BME280;13185;50.872;5.306;2023-04-30T01:53:44;101906.88;;;7.28;99.99
25238;BME280;13185;50.872;5.306;2023-04-30T01:56:26;101907.91;;;7.24;100.00
25238;BME280;13185;50.872;5.306;2023-04-30T01:58:52;101915.09;;;7.22;100.00
25238;BME280;13185;50.872;5.306;2023-04-30T02:01:30;101915.19;;;7.19;100.00
25238;BME280;13185;50.872;5.306;2023-04-30T02:03:56;101912.56;;;7.17;100.00
25238;BME280;13185;50.872;5.306;2023-04-30T02:06:26;101904.75;;;7.13;100.00
25238;BME280;13185;50.872;5.306;2023-04-30T02:08:56;101903.94;;;7.11;100.00
25238;BME280;13185;50.872;5.306;2023-04-30T02:11:27;101904.94;;;7.07;100.00
25238;BME280;13185;50.872;5.306;2023-04-30T02:13:53;101910.38;;;7.04;100.00
25238;BME280;13185;50.872;5.306;2023-04-30T02:16:18;101906.09;;;6.98;100.00
25238;BME280;13185;50.872;5.306;2023-04-30T02:18:44;101909.69;;;6.97;100.00
25238;BME280;13185;50.872;5.306;2023-04-30T02:21:10;101905.41;;;6.93;99.89
25238;BME280;13185;50.872;5.306;2023-04-30T02:23:35;101914.38;;;6.90;99.94
25238;BME280;13185;50.872;5.306;2023-04-30T02:26:01;101907.38;;;6.86;99.67
25238;BME280;13185;50.872;5.306;2023-04-30T02:28:27;101908.38;;;6.84;99.49
25238;BME280;13185;50.872;5.306;2023-04-30T02:30:53;101909.34;;;6.81;99.24
25238;BME280;13185;50.872;5.306;2023-04-30T02:33:19;101915.66;;;6.79;99.09
25238;BME280;13185;50.872;5.306;2023-04-30T02:35:44;101911.38;;;6.73;99.10
25238;BME280;13185;50.872;5.306;2023-04-30T02:38:10;101903.53;;;6.69;98.98
25238;BME280;13185;50.872;5.306;2023-04-30T02:40:36;101900.03;;;6.66;98.86
25238;BME280;13185;50.872;5.306;2023-04-30T02:43:01;101901.00;;;6.64;98.80
25238;BME280;13185;50.872;5.306;2023-04-30T02:45:27;101902.91;;;6.60;98.76
25238;BME280;13185;50.872;5.306;2023-04-30T02:47:52;101891.44;;;6.58;98.66
25238;BME280;13185;50.872;5.306;2023-04-30T02:50:18;101902.22;;;6.54;98.92
25238;BME280;13185;50.872;5.306;2023-04-30T02:52:45;101900.53;;;6.51;99.11
25238;BME280;13185;50.872;5.306;2023-04-30T02:55:11;101897.97;;;6.48;99.56
25238;BME280;13185;50.872;5.306;2023-04-30T02:57:37;101901.63;;;6.44;99.71
25238;BME280;13185;50.872;5.306;2023-04-30T03:00:03;101898.16;;;6.42;99.89
25238;BME280;13185;50.872;5.306;2023-04-30T03:02:30;101900.06;;;6.39;99.82
25238;BME280;13185;50.872;5.306;2023-04-30T03:04:55;101901.97;;;6.33;99.95
25238;BME280;13185;50.872;5.306;2023-04-30T03:07:21;101905.59;;;6.31;99.82
25238;BME280;13185;50.872;5.306;2023-04-30T03:09:46;101893.34;;;6.25;100.00
25238;BME280;13185;50.872;5.306;2023-04-30T03:12:12;101898.69;;;6.25;100.00
25238;BME280;13185;50.872;5.306;2023-04-30T03:14:39;101903.16;;;6.23;100.00
25238;BME280;13185;50.872;5.306;2023-04-30T03:17:05;101899.63;;;6.23;100.00
25238;BME280;13185;50.872;5.306;2023-04-30T03:19:32;101902.28;;;6.23;100.00
25238;BME280;13185;50.872;5.306;2023-04-30T03:21:57;101907.72;;;6.20;100.00
25238;BME280;13185;50.872;5.306;2023-04-30T03:24:23;101905.16;;;6.17;100.00
25238;BME280;13185;50.872;5.306;2023-04-30T03:26:49;101896.31;;;6.15;100.00
25238;BME280;13185;50.872;5.306;2023-04-30T03:29:16;101901.69;;;6.13;100.00
25238;BME280;13185;50.872;5.306;2023-04-30T03:31:42;101901.75;;;6.12;100.00
25238;BME280;13185;50.872;5.306;2023-04-30T03:34:08;101899.19;;;6.08;100.00
25238;BME280;13185;50.872;5.306;2023-04-30T03:36:34;101902.81;;;6.06;100.00
25238;BME280;13185;50.872;5.306;2023-04-30T03:39:02;101902.00;;;6.02;100.00
25238;BME280;13185;50.872;5.306;2023-04-30T03:41:28;101907.38;;;6.01;100.00
25238;BME280;13185;50.872;5.306;2023-04-30T03:43:54;101904.81;;;5.98;99.96
25238;BME280;13185;50.872;5.306;2023-04-30T03:46:19;101905.78;;;5.95;99.85
25238;BME280;13185;50.872;5.306;2023-04-30T03:48:47;101901.44;;;5.91;100.00
25238;BME280;13185;50.872;5.306;2023-04-30T03:51:12;101904.19;;;5.88;100.00
25238;BME280;13185;50.872;5.306;2023-04-30T03:53:38;101901.66;;;5.84;100.00
25238;BME280;13185;50.872;5.306;2023-04-30T03:56:05;101905.25;;;5.81;100.00
25238;BME280;13185;50.872;5.306;2023-04-30T03:58:31;101912.31;;;5.82;100.00
25238;BME280;13185;50.872;5.306;2023-04-30T04:00:56;101906.19;;;5.80;100.00
25238;BME280;13185;50.872;5.306;2023-04-30T04:03:22;101903.63;;;5.77;100.00
25238;BME280;13185;50.872;5.306;2023-04-30T04:05:48;101910.78;;;5.75;100.00
25238;BME280;13185;50.872;5.306;2023-04-30T04:08:13;101909.06;;;5.72;100.00
25238;BME280;13185;50.872;5.306;2023-04-30T04:10:39;101902.06;;;5.68;100.00
25238;BME280;13185;50.872;5.306;2023-04-30T04:13:07;101904.78;;;5.67;99.96
25238;BME280;13185;50.872;5.306;2023-04-30T04:15:33;101904.84;;;5.65;99.93
25238;BME280;13185;50.872;5.306;2023-04-30T04:17:59;101901.38;;;5.62;99.99
25238;BME280;13185;50.872;5.306;2023-04-30T04:20:25;101897.88;;;5.60;100.00
25238;BME280;13185;50.872;5.306;2023-04-30T04:22:52;101905.88;;;5.60;100.00
25238;BME280;13185;50.872;5.306;2023-04-30T04:25:18;101914.72;;;5.60;100.00
25238;BME280;13185;50.872;5.306;2023-04-30T04:27:44;101907.66;;;5.59;100.00
25238;BME280;13185;50.872;5.306;2023-04-30T04:30:10;101907.59;;;5.61;100.00
25238;BME280;13185;50.872;5.306;2023-04-30T04:32:38;101915.53;;;5.62;100.00
25238;BME280;13185;50.872;5.306;2023-04-30T04:35:13;101924.38;;;5.64;100.00
25238;BME280;13185;50.872;5.306;2023-04-30T04:37:40;101920.88;;;5.62;100.00
25238;BME280;13185;50.872;5.306;2023-04-30T04:40:07;101913.81;;;5.61;100.00
25238;BME280;13185;50.872;5.306;2023-04-30T04:42:33;101914.72;;;5.60;100.00
25238;BME280;13185;50.872;5.306;2023-04-30T04:44:58;101914.66;;;5.62;100.00
25238;BME280;13185;50.872;5.306;2023-04-30T04:47:25;101923.53;;;5.62;100.00
25238;BME280;13185;50.872;5.306;2023-04-30T04:49:51;101921.78;;;5.63;100.00
25238;BME280;13185;50.872;5.306;2023-04-30T04:52:17;101923.50;;;5.64;100.00
25238;BME280;13185;50.872;5.306;2023-04-30T04:54:42;101934.00;;;5.68;100.00
25238;BME280;13185;50.872;5.306;2023-04-30T04:57:08;101930.47;;;5.68;100.00
25238;BME280;13185;50.872;5.306;2023-04-30T04:59:33;101939.28;;;5.70;100.00
25238;BME280;13185;50.872;5.306;2023-04-30T05:01:59;101926.81;;;5.72;100.00
25238;BME280;13185;50.872;5.306;2023-04-30T05:04:25;101929.34;;;5.76;100.00
25238;BME280;13185;50.872;5.306;2023-04-30T05:06:52;101932.81;;;5.80;100.00
25238;BME280;13185;50.872;5.306;2023-04-30T05:09:19;101936.28;;;5.84;100.00
25238;BME280;13185;50.872;5.306;2023-04-30T05:11:45;101937.88;;;5.89;100.00
25238;BME280;13185;50.872;5.306;2023-04-30T05:14:10;101946.56;;;5.97;100.00
25238;BME280;13185;50.872;5.306;2023-04-30T05:16:36;101941.03;;;6.03;100.00
25238;BME280;13185;50.872;5.306;2023-04-30T05:19:01;101946.97;;;6.13;100.00
25238;BME280;13185;50.872;5.306;2023-04-30T05:21:27;101938.66;;;6.24;100.00
25238;BME280;13185;50.872;5.306;2023-04-30T05:23:54;101933.88;;;6.36;100.00
25238;BME280;13185;50.872;5.306;2023-04-30T05:26:20;101942.47;;;6.46;100.00
25238;BME280;13185;50.872;5.306;2023-04-30T05:28:47;101946.53;;;6.58;100.00
25238;BME280;13185;50.872;5.306;2023-04-30T05:31:13;101941.78;;;6.68;100.00
25238;BME280;13185;50.872;5.306;2023-04-30T05:33:38;101941.47;;;6.78;100.00
25238;BME280;13185;50.872;5.306;2023-04-30T05:36:05;101945.53;;;6.90;100.00
25238;BME280;13185;50.872;5.306;2023-04-30T05:38:30;101945.13;;;7.02;100.00
25238;BME280;13185;50.872;5.306;2023-04-30T05:40:56;101945.56;;;7.15;100.00
25238;BME280;13185;50.872;5.306;2023-04-30T05:43:21;101943.31;;;7.29;100.00
25238;BME280;13185;50.872;5.306;2023-04-30T05:45:47;101941.94;;;7.44;100.00
25238;BME280;13185;50.872;5.306;2023-04-30T05:48:12;101952.13;;;7.58;100.00
25238;BME280;13185;50.872;5.306;2023-04-30T05:50:38;101941.78;;;7.73;100.00
25238;BME280;13185;50.872;5.306;2023-04-30T05:53:03;101942.09;;;7.89;100.00
25238;BME280;13185;50.872;5.306;2023-04-30T05:55:29;101937.16;;;8.02;100.00
25238;BME280;13185;50.872;5.306;2023-04-30T05:57:55;101942.81;;;8.18;100.00
25238;BME280;13185;50.872;5.306;2023-04-30T06:00:20;101936.06;;;8.31;100.00
25238;BME280;13185;50.872;5.306;2023-04-30T06:02:46;101939.00;;;8.48;100.00
25238;BME280;13185;50.872;5.306;2023-04-30T06:05:12;101933.00;;;8.65;100.00
25238;BME280;13185;50.872;5.306;2023-04-30T06:07:37;101934.97;;;8.82;100.00
25238;BME280;13185;50.872;5.306;2023-04-30T06:10:03;101930.94;;;8.93;100.00
25238;BME280;13185;50.872;5.306;2023-04-30T06:12:29;101934.97;;;9.04;100.00
25238;BME280;13185;50.872;5.306;2023-04-30T06:14:55;101932.88;;;9.12;100.00
25238;BME280;13185;50.872;5.306;2023-04-30T06:17:20;101935.16;;;9.21;100.00
25238;BME280;13185;50.872;5.306;2023-04-30T06:19:46;101937.31;;;9.33;100.00
25238;BME280;13185;50.872;5.306;2023-04-30T06:22:11;101932.28;;;9.46;100.00
25238;BME280;13185;50.872;5.306;2023-04-30T06:24:37;101931.75;;;9.58;100.00
25238;BME280;13185;50.872;5.306;2023-04-30T06:27:02;101938.91;;;9.58;100.00
25238;BME280;13185;50.872;5.306;2023-04-30T06:29:28;101939.69;;;9.61;100.00
25238;BME280;13185;50.872;5.306;2023-04-30T06:31:53;101943.63;;;9.73;100.00
25238;BME280;13185;50.872;5.306;2023-04-30T06:34:20;101938.91;;;9.78;100.00
25238;BME280;13185;50.872;5.306;2023-04-30T06:36:45;101934.81;;;9.90;100.00
25238;BME280;13185;50.872;5.306;2023-04-30T06:39:14;101938.41;;;10.09;100.00
25238;BME280;13185;50.872;5.306;2023-04-30T06:41:40;101935.09;;;10.24;100.00
25238;BME280;13185;50.872;5.306;2023-04-30T06:44:08;101935.97;;;10.44;100.00
25238;BME280;13185;50.872;5.306;2023-04-30T06:46:34;101935.03;;;10.63;100.00
25238;BME280;13185;50.872;5.306;2023-04-30T06:49:00;101937.66;;;10.82;100.00
25238;BME280;13185;50.872;5.306;2023-04-30T06:51:25;101934.78;;;11.04;100.00
25238;BME280;13185;50.872;5.306;2023-04-30T06:53:51;101940.75;;;11.28;100.00
25238;BME280;13185;50.872;5.306;2023-04-30T06:56:17;101930.00;;;11.45;100.00
25238;BME280;13185;50.872;5.306;2023-04-30T06:58:43;101929.44;;;11.56;100.00
25238;BME280;13185;50.872;5.306;2023-04-30T07:01:09;101936.34;;;11.79;100.00
25238;BME280;13185;50.872;5.306;2023-04-30T07:03:35;101933.41;;;12.01;100.00
25238;BME280;13185;50.872;5.306;2023-04-30T07:06:00;101929.84;;;12.00;99.18
25238;BME280;13185;50.872;5.306;2023-04-30T07:08:26;101931.69;;;12.16;99.80
25238;BME280;13185;50.872;5.306;2023-04-30T07:10:52;101923.22;;;12.23;95.25
25238;BME280;13185;50.872;5.306;2023-04-30T07:13:17;101912.38;;;12.25;96.29
25238;BME280;13185;50.872;5.306;2023-04-30T07:15:43;101916.97;;;12.38;97.17
25238;BME280;13185;50.872;5.306;2023-04-30T07:18:09;101911.53;;;12.56;99.35
25238;BME280;13185;50.872;5.306;2023-04-30T07:20:35;101918.28;;;12.79;98.84
25238;BME280;13185;50.872;5.306;2023-04-30T07:23:00;101914.25;;;13.01;99.41
25238;BME280;13185;50.872;5.306;2023-04-30T07:25:26;101906.38;;;13.14;94.73
25238;BME280;13185;50.872;5.306;2023-04-30T07:27:51;101915.22;;;13.00;90.27
25238;BME280;13185;50.872;5.306;2023-04-30T07:30:17;101917.59;;;12.91;87.25
25238;BME280;13185;50.872;5.306;2023-04-30T07:32:43;101920.75;;;12.83;86.99
25238;BME280;13185;50.872;5.306;2023-04-30T07:35:09;101928.44;;;12.89;88.69
25238;BME280;13185;50.872;5.306;2023-04-30T07:37:35;101922.97;;;12.91;87.78
25238;BME280;13185;50.872;5.306;2023-04-30T07:40:00;101922.97;;;12.91;87.17
25238;BME280;13185;50.872;5.306;2023-04-30T07:42:26;101920.81;;;12.97;89.91
25238;BME280;13185;50.872;5.306;2023-04-30T07:44:51;101915.84;;;13.06;90.84
25238;BME280;13185;50.872;5.306;2023-04-30T07:47:17;101917.47;;;13.08;92.20
25238;BME280;13185;50.872;5.306;2023-04-30T07:49:45;101925.28;;;13.13;92.99
25238;BME280;13185;50.872;5.306;2023-04-30T07:52:11;101919.63;;;13.17;94.12
25238;BME280;13185;50.872;5.306;2023-04-30T07:54:37;101925.47;;;13.25;96.14
25238;BME280;13185;50.872;5.306;2023-04-30T07:57:04;101928.28;;;13.24;94.21
25238;BME280;13185;50.872;5.306;2023-04-30T07:59:31;101932.31;;;13.31;96.42
25238;BME280;13185;50.872;5.306;2023-04-30T08:01:56;101925.53;;;13.40;96.34
25238;BME280;13185;50.872;5.306;2023-04-30T08:04:22;101927.16;;;13.42;95.27
25238;BME280;13185;50.872;5.306;2023-04-30T08:06:47;101928.72;;;13.46;95.70
25238;BME280;13185;50.872;5.306;2023-04-30T08:09:13;101930.56;;;13.46;92.58
25238;BME280;13185;50.872;5.306;2023-04-30T08:11:40;101924.53;;;13.56;95.08
25238;BME280;13185;50.872;5.306;2023-04-30T08:14:05;101921.34;;;13.64;94.49
25238;BME280;13185;50.872;5.306;2023-04-30T08:16:31;101924.81;;;13.66;88.26
25238;BME280;13185;50.872;5.306;2023-04-30T08:18:57;101924.63;;;13.69;92.91
25238;BME280;13185;50.872;5.306;2023-04-30T08:21:23;101922.03;;;13.82;95.10
25238;BME280;13185;50.872;5.306;2023-04-30T08:23:49;101924.84;;;13.80;90.67
25238;BME280;13185;50.872;5.306;2023-04-30T08:26:14;101921.69;;;13.88;90.90
25238;BME280;13185;50.872;5.306;2023-04-30T08:28:40;101922.03;;;13.96;91.08
25238;BME280;13185;50.872;5.306;2023-04-30T08:31:06;101919.09;;;14.01;91.38
25238;BME280;13185;50.872;5.306;2023-04-30T08:33:31;101918.50;;;14.10;90.92
25238;BME280;13185;50.872;5.306;2023-04-30T08:35:57;101910.72;;;14.20;91.31
25238;BME280;13185;50.872;5.306;2023-04-30T08:38:24;101906.81;;;14.38;91.02
25238;BME280;13185;50.872;5.306;2023-04-30T08:41:12;101898.91;;;14.35;83.39
25238;BME280;13185;50.872;5.306;2023-04-30T08:43:39;101902.50;;;14.35;81.31
25238;BME280;13185;50.872;5.306;2023-04-30T08:46:05;101901.25;;;14.27;81.70
25238;BME280;13185;50.872;5.306;2023-04-30T08:48:31;101898.81;;;14.36;84.13
25238;BME280;13185;50.872;5.306;2023-04-30T08:51:01;101896.59;;;14.43;82.97
25238;BME280;13185;50.872;5.306;2023-04-30T08:53:29;101904.03;;;14.54;84.10
25238;BME280;13185;50.872;5.306;2023-04-30T08:55:56;101906.03;;;14.64;82.86
25238;BME280;13185;50.872;5.306;2023-04-30T08:58:21;101893.31;;;14.66;79.98
25238;BME280;13185;50.872;5.306;2023-04-30T09:00:47;101897.13;;;14.77;80.56
25238;BME280;13185;50.872;5.306;2023-04-30T09:03:13;101900.31;;;14.83;80.45
25238;BME280;13185;50.872;5.306;2023-04-30T09:05:38;101890.84;;;14.90;77.67
25238;BME280;13185;50.872;5.306;2023-04-30T09:08:06;101898.28;;;14.99;78.81
25238;BME280;13185;50.872;5.306;2023-04-30T09:10:34;101894.00;;;15.10;78.71
25238;BME280;13185;50.872;5.306;2023-04-30T09:13:07;101895.44;;;15.15;77.68
25238;BME280;13185;50.872;5.306;2023-04-30T09:15:33;101892.13;;;15.24;77.72
25238;BME280;13185;50.872;5.306;2023-04-30T09:18:11;101896.56;;;15.25;74.97
25238;BME280;13185;50.872;5.306;2023-04-30T09:20:37;101888.34;;;15.27;74.51
25238;BME280;13185;50.872;5.306;2023-04-30T09:23:10;101890.53;;;15.35;75.18
25238;BME280;13185;50.872;5.306;2023-04-30T09:25:42;101887.28;;;15.42;73.41
25238;BME280;13185;50.872;5.306;2023-04-30T09:28:12;101882.03;;;15.53;74.17
25238;BME280;13185;50.872;5.306;2023-04-30T09:30:41;101885.47;;;15.55;68.65
25238;BME280;13185;50.872;5.306;2023-04-30T09:33:07;101885.25;;;15.46;69.18
25238;BME280;13185;50.872;5.306;2023-04-30T09:35:38;101886.75;;;15.50;68.85
25238;BME280;13185;50.872;5.306;2023-04-30T09:38:04;101880.38;;;15.51;68.01
25238;BME280;13185;50.872;5.306;2023-04-30T09:40:37;101880.94;;;15.56;69.27
25238;BME280;13185;50.872;5.306;2023-04-30T09:43:04;101881.78;;;15.56;68.03
25238;BME280;13185;50.872;5.306;2023-04-30T09:45:59;101887.31;;;15.55;65.36
25238;BME280;13185;50.872;5.306;2023-04-30T09:48:25;101879.97;;;15.57;67.95
25238;BME280;13185;50.872;5.306;2023-04-30T09:50:52;101875.22;;;15.73;68.86
25238;BME280;13185;50.872;5.306;2023-04-30T09:53:18;101876.22;;;15.85;68.73
25238;BME280;13185;50.872;5.306;2023-04-30T09:55:46;101868.63;;;16.03;67.27
25238;BME280;13185;50.872;5.306;2023-04-30T09:58:12;101873.06;;;16.04;66.01
25238;BME280;13185;50.872;5.306;2023-04-30T10:00:38;101862.66;;;16.10;64.73
25238;BME280;13185;50.872;5.306;2023-04-30T10:03:12;101868.41;;;16.06;65.73
25238;BME280;13185;50.872;5.306;2023-04-30T10:05:43;101860.19;;;16.07;64.31
25238;BME280;13185;50.872;5.306;2023-04-30T10:09:14;101855.53;;;16.09;60.61
25238;BME280;13185;50.872;5.306;2023-04-30T10:11:22;101854.63;;;16.22;63.25
25238;BME280;13185;50.872;5.306;2023-04-30T10:14:02;101855.38;;;16.36;63.89
25238;BME280;13185;50.872;5.306;2023-04-30T10:16:57;101851.69;;;16.37;60.73
25238;BME280;13185;50.872;5.306;2023-04-30T10:19:24;101851.59;;;16.26;61.23
25238;BME280;13185;50.872;5.306;2023-04-30T10:21:50;101853.41;;;16.38;63.52
25238;BME280;13185;50.872;5.306;2023-04-30T10:24:18;101848.38;;;16.45;60.23
25238;BME280;13185;50.872;5.306;2023-04-30T10:26:46;101846.34;;;16.49;61.70
25238;BME280;13185;50.872;5.306;2023-04-30T10:29:12;101840.91;;;16.49;59.94
25238;BME280;13185;50.872;5.306;2023-04-30T10:31:40;101845.59;;;16.47;60.35
25238;BME280;13185;50.872;5.306;2023-04-30T10:36:45;101848.53;;;16.67;60.63
25238;BME280;13185;50.872;5.306;2023-04-30T10:39:16;101842.34;;;16.78;62.67
25238;BME280;13185;50.872;5.306;2023-04-30T10:41:46;101839.91;;;16.86;59.81
25238;BME280;13185;50.872;5.306;2023-04-30T10:44:13;101832.31;;;16.91;57.89
25238;BME280;13185;50.872;5.306;2023-04-30T10:46:38;101838.00;;;16.99;61.25
25238;BME280;13185;50.872;5.306;2023-04-30T10:49:04;101829.63;;;17.02;58.65
25238;BME280;13185;50.872;5.306;2023-04-30T10:51:50;101835.56;;;17.08;59.50
25238;BME280;13185;50.872;5.306;2023-04-30T10:54:35;101825.84;;;17.16;59.06
25238;BME280;13185;50.872;5.306;2023-04-30T10:57:12;101813.41;;;17.14;55.43
25238;BME280;13185;50.872;5.306;2023-04-30T10:59:53;101818.41;;;17.31;56.19
25238;BME280;13185;50.872;5.306;2023-04-30T11:02:45;101813.88;;;17.43;55.98
25238;BME280;13185;50.872;5.306;2023-04-30T11:05:17;101810.16;;;17.44;54.52
25238;BME280;13185;50.872;5.306;2023-04-30T11:07:56;101804.59;;;17.34;53.60
25238;BME280;13185;50.872;5.306;2023-04-30T11:10:24;101803.00;;;17.31;54.14
25238;BME280;13185;50.872;5.306;2023-04-30T11:12:51;101801.75;;;17.36;52.87
25238;BME280;13185;50.872;5.306;2023-04-30T11:15:19;101806.19;;;17.37;53.52
25238;BME280;13185;50.872;5.306;2023-04-30T11:17:47;101802.28;;;17.41;52.49
25238;BME280;13185;50.872;5.306;2023-04-30T11:20:18;101792.38;;;17.40;53.90
25238;BME280;13185;50.872;5.306;2023-04-30T11:22:44;101787.97;;;17.50;52.65
25238;BME280;13185;50.872;5.306;2023-04-30T11:25:11;101786.38;;;17.58;52.25
25238;BME280;13185;50.872;5.306;2023-04-30T11:27:42;101783.78;;;17.68;53.54
25238;BME280;13185;50.872;5.306;2023-04-30T11:30:15;101781.88;;;17.93;52.84
25238;BME280;13185;50.872;5.306;2023-04-30T11:32:43;101772.09;;;18.01;51.73
25238;BME280;13185;50.872;5.306;2023-04-30T11:35:12;101786.19;;;17.95;50.08
25238;BME280;13185;50.872;5.306;2023-04-30T11:37:42;101773.22;;;17.87;49.96
25238;BME280;13185;50.872;5.306;2023-04-30T11:40:10;101778.91;;;17.84;49.25
25238;BME280;13185;50.872;5.306;2023-04-30T11:42:37;101772.38;;;17.87;49.12
25238;BME280;13185;50.872;5.306;2023-04-30T11:45:13;101766.53;;;17.92;50.20
25238;BME280;13185;50.872;5.306;2023-04-30T11:47:48;101761.72;;;18.06;50.20
25238;BME280;13185;50.872;5.306;2023-04-30T11:50:19;101763.31;;;18.20;49.83
25238;BME280;13185;50.872;5.306;2023-04-30T11:52:50;101755.16;;;18.20;49.26
25238;BME280;13185;50.872;5.306;2023-04-30T11:55:19;101764.00;;;18.33;49.17
25238;BME280;13185;50.872;5.306;2023-04-30T11:57:47;101756.63;;;18.35;48.50
25238;BME280;13185;50.872;5.306;2023-04-30T12:00:18;101753.91;;;18.35;48.53
25238;BME280;13185;50.872;5.306;2023-04-30T12:02:47;101755.72;;;18.46;49.11
25238;BME280;13185;50.872;5.306;2023-04-30T12:05:17;101753.81;;;18.58;48.71
25238;BME280;13185;50.872;5.306;2023-04-30T12:07:53;101739.34;;;18.68;48.67
25238;BME280;13185;50.872;5.306;2023-04-30T12:10:19;101748.59;;;18.77;47.36
25238;BME280;13185;50.872;5.306;2023-04-30T12:12:46;101738.88;;;18.84;47.35
25238;BME280;13185;50.872;5.306;2023-04-30T12:15:16;101738.44;;;18.79;46.61
25238;BME280;13185;50.872;5.306;2023-04-30T12:17:43;101739.16;;;18.81;45.28
25238;BME280;13185;50.872;5.306;2023-04-30T12:20:11;101732.47;;;18.85;46.22
25238;BME280;13185;50.872;5.306;2023-04-30T12:22:38;101730.59;;;18.86;46.18
25238;BME280;13185;50.872;5.306;2023-04-30T12:25:06;101727.63;;;18.89;44.84
25238;BME280;13185;50.872;5.306;2023-04-30T12:27:34;101731.88;;;18.82;44.71
25238;BME280;13185;50.872;5.306;2023-04-30T12:30:02;101731.66;;;18.94;46.23
25238;BME280;13185;50.872;5.306;2023-04-30T12:32:28;101727.03;;;19.06;46.49
25238;BME280;13185;50.872;5.306;2023-04-30T12:34:57;101729.41;;;19.20;46.72
25238;BME280;13185;50.872;5.306;2023-04-30T12:37:25;101714.75;;;19.32;46.58
25238;BME280;13185;50.872;5.306;2023-04-30T12:39:52;101716.50;;;19.43;46.23
25238;BME280;13185;50.872;5.306;2023-04-30T12:42:19;101713.59;;;19.56;46.80
25238;BME280;13185;50.872;5.306;2023-04-30T12:44:45;101708.38;;;19.74;45.99
25238;BME280;13185;50.872;5.306;2023-04-30T12:47:11;101717.34;;;19.65;43.56
25238;BME280;13185;50.872;5.306;2023-04-30T12:49:38;101709.63;;;19.60;44.97
25238;BME280;13185;50.872;5.306;2023-04-30T12:52:08;101702.31;;;19.60;45.31
25238;BME280;13185;50.872;5.306;2023-04-30T12:54:35;101698.91;;;19.78;46.07
25238;BME280;13185;50.872;5.306;2023-04-30T12:57:07;101696.69;;;19.93;45.17
25238;BME280;13185;50.872;5.306;2023-04-30T12:59:56;101695.78;;;19.82;44.29
25238;BME280;13185;50.872;5.306;2023-04-30T13:02:24;101692.22;;;19.92;44.31
25238;BME280;13185;50.872;5.306;2023-04-30T13:04:52;101679.84;;;19.78;42.46
25238;BME280;13185;50.872;5.306;2023-04-30T13:07:18;101686.72;;;19.72;44.66
25238;BME280;13185;50.872;5.306;2023-04-30T13:09:44;101687.75;;;19.81;44.34
25238;BME280;13185;50.872;5.306;2023-04-30T13:12:10;101672.88;;;19.95;44.15
25238;BME280;13185;50.872;5.306;2023-04-30T13:14:36;101674.78;;;20.04;43.26
25238;BME280;13185;50.872;5.306;2023-04-30T13:17:02;101674.19;;;20.10;42.35
25238;BME280;13185;50.872;5.306;2023-04-30T13:19:30;101661.44;;;20.20;41.83
25238;BME280;13185;50.872;5.306;2023-04-30T13:21:56;101679.94;;;20.26;43.48
25238;BME280;13185;50.872;5.306;2023-04-30T13:24:21;101676.78;;;20.40;43.45